Disclaimer

Please do not use the information listed here in-flight or in-navigation, as they are not provided to us by the airports but are provided by volunteers, so they might be outdated.

Search


Regions


Airport information page

Radio informations:
Tower (TWR) - 122.1 MHz
Ground (GND) - 121.95 MHz

Airport informations:
Latitude: 37° 55' 44.29" N
Longitude: 041° 06' 59.70" E
Elevation: 1822 feet - 555 meters
Operating hours: Remarks
Operating agency: Military
Timezone: UTC+2(+3DT) - Dates notified by NOTAM
Fuel: JP-4, Wide cut turbine fuel MIL Spec T-5624

100/130 octane gasoline, leaded, MIL-L-5572F (GREEN)

Runway information:
02/20 - 10000 x 150 feet< - >3048 x 46 meters

Recent METARs:
LTCJ 211020Z VRB02KT 8000 BKN100 12/08 Q1018
LTCJ 211050Z VRB02KT 8000 BKN100 12/07 Q1018
LTCJ 211120Z VRB01KT 8000 BKN100 14/08 Q1018

Airport on the map: